General Aviation Weather

Text Reports

Enter one or more of the following location identifiers separated by a space:

Zip Code, Four-Character ICAO or Three-Character IATA airport codes.

METAR - Aviation Routine Weather Report
KCLS - Chehalis, Washington
Updated at 1:35 AM GMT on December 18, 2014 (5:35 PM PST):
METAR KCLS 180135Z AUTO 00000KT 10SM OVC031 08/07 A2988 RMK AO2
TAF - Terminal Area Forecast
KCLS - Chehalis, Washington
Updated at 1:35 AM GMT on December 18, 2014 (5:35 PM PST):
No TAF is currently available for this location.
Decoded:
No decoded TAF is available.
PIREP - Pilot Weather Report
KCLS - Chehalis, Washington
Updated at 1:35 AM GMT on December 18, 2014 (5:35 PM PST):
No PIREP is currently available for this location.
AIRMET - Airmens Meteorological Information
KCLS - Chehalis, Washington
Updated at 1:35 AM GMT on December 18, 2014 (5:35 PM PST):
No AIRMET is currently available for this location.
SIGMET - Significant Meteorological Information
KCLS - Chehalis, Washington
Updated at 1:35 AM GMT on December 18, 2014 (5:35 PM PST):
No SIGMET is currently available for this location.
NOTAM - Notice to Airmen
KCLS - Chehalis, Washington
Updated at 1:35 AM GMT on December 18, 2014 (5:35 PM PST):
No NOTAM is currently available for this location.
Forecast Area
KCLS - Chehalis, Washington
Updated at 1:35 AM GMT on December 18, 2014 (5:35 PM PST):
No NOTAM is currently available for this location.
Aviation Weather Maps